< Typhoon 201620 2016 Season Typhoon 201622 >
Typhoon 201621 (SARIKA)
General InformationTrack Information on Google MapsDetailed Wind InformationForecast History on Google MapsAccess Analytics MapList of All Images || NewsDisaster Info.WeblogTrackbackTyphoon FrontTwiphoonTyphoon Now!Typhoon ImaginationDisaster Info. XMLResourceGoogle EarthGE AnimationAtom FeedGeoJSON
Detalied Best Track (Time Zone = UTC)
Year Month Day Hour Lat. Long. Pressure (hPa) Wind (kt) Class Image Chart
2016 10 13 00 12.9 129.4 1004 0 2 Image Chart
2016 10 13 06 13.1 128.9 1004 0 2 Image Chart
2016 10 13 12 13.3 128.1 1002 0 2 Image Chart
2016 10 13 18 13.5 127.3 998 35 3 Image Chart
2016 10 14 00 13.6 126.7 994 40 3 Image Chart
2016 10 14 06 13.7 126.3 990 45 3 Image Chart
2016 10 14 12 13.8 125.9 980 55 4 Image Chart
2016 10 14 18 14.0 125.4 980 55 4 Image Chart
2016 10 15 00 14.3 124.6 970 65 5 Image Chart
2016 10 15 06 14.7 123.9 955 80 5 Image Chart
2016 10 15 12 15.1 123.0 950 85 5 Image Chart
2016 10 15 18 15.8 121.8 935 95 5 Image Chart
2016 10 16 00 16.2 119.8 965 75 5 Image Chart
2016 10 16 06 16.6 118.4 965 70 5 Image Chart
2016 10 16 12 16.8 117.2 970 65 5 Image Chart
2016 10 16 18 16.8 115.5 970 65 5 Image Chart
2016 10 17 00 17.0 114.3 970 60 4 Image Chart
2016 10 17 06 17.4 113.1 970 60 4 Image Chart
2016 10 17 12 17.6 112.3 970 60 4 Image Chart
2016 10 17 18 18.0 111.5 970 60 4 Image Chart
2016 10 18 00 18.6 110.7 970 60 4 Image Chart
2016 10 18 06 19.1 110.0 975 55 4 Image Chart
2016 10 18 12 19.7 109.3 985 45 3 Image Chart
2016 10 18 18 20.3 108.8 990 40 3 Image Chart
2016 10 19 00 21.0 108.4 994 35 3 Image Chart
2016 10 19 06 21.7 108.1 996 0 2 Image Chart
2016 10 19 12 22.0 108.0 1000 0 2 Image Chart
2016 10 19 18 22.4 108.0 1004 0 2 Image Chart
Japan Meteorological Agency Best Track Data | Correction Date : 2016-11-22
< Typhoon 201620 2016 Season Typhoon 201622 >

Help